Bulpitt, Illinois
Current Conditions -  °F | °C
As of 3:35 AM on Thursday 27 Nov 2014 (Local Time) from KTAZ Reporting Station
Broken Clouds Broken Clouds  
Wind Chill: -11°   Ceiling: 9000
Heat Index: -5°   Visibility: 7mi
Dew Point: -6°   Wind: 9mph
Humidity: 93%   Direction: 350°N
Pressure: 30.32"   Gusts: NA
Location:  39.59°N, 89.42°W
Report Text: KTAZ 270935Z AUTO 35008KT 7SM SCT080 BKN090 M05/M06 A3032 RMK AO2
Loading
Personal Weather Stations






























Interactive Weather Map New forecast layout! Learn more

10-Day Weather Forecast

Advertisements
Track Severe Weather on mobile